TVP7146 EPPO-HEGN
Flight info
| Callsign | TVP7146 |
|---|---|
| Flight time | 4h 2m |
| Altitude | 33000 |
| Route | XIDNA L617 REGLI DCT DEMOP DCT BUDOP DCT NAVOD DCT ADORU/N0442F350 UG80 EKI UL854 KULAR UT39 TOMBI M855 RASDA A16 CVO L315 HGD |
| Aircraft | B738/M-SDE3FGHIJ1RWXYZ/LB1 |
Departure
| Time | 2026-05-07 15:10 |
|---|---|
| Airport | Poznań-Ławica Airport (EPPO) |
Arrival
| Time | 2026-05-07 19:12 |
|---|---|
| Airport | Hurghada International Airport (HEGN) |
| Time | Latitude | Longitude | Altitude | Speed | Heading |
|---|---|---|---|---|---|
| 2026-05-07 14:03 | 52.41578 | 16.82987 | 291 ft | 0 kts | 192° |
| 2026-05-07 15:01 | 52.41591 | 16.82992 | 291 ft | 4 kts | 192° |
| 2026-05-07 15:01 | 52.41618 | 16.82999 | 294 ft | 4 kts | 182° |
| 2026-05-07 15:01 | 52.41641 | 16.82993 | 289 ft | 4 kts | 135° |
| 2026-05-07 15:02 | 52.41646 | 16.82981 | 290 ft | 0 kts | 102° |
| 2026-05-07 15:05 | 52.41646 | 16.82982 | 290 ft | 0 kts | 102° |
| 2026-05-07 15:05 | 52.41642 | 16.83014 | 293 ft | 7 kts | 102° |
| 2026-05-07 15:05 | 52.41626 | 16.83133 | 292 ft | 14 kts | 103° |
| 2026-05-07 15:05 | 52.41604 | 16.83291 | 287 ft | 14 kts | 103° |
| 2026-05-07 15:06 | 52.41583 | 16.83442 | 293 ft | 13 kts | 103° |
| 2026-05-07 15:06 | 52.41568 | 16.83589 | 291 ft | 13 kts | 93° |
| 2026-05-07 15:06 | 52.41564 | 16.83733 | 287 ft | 13 kts | 92° |
| 2026-05-07 15:06 | 52.41568 | 16.83872 | 287 ft | 12 kts | 66° |
| 2026-05-07 15:07 | 52.41624 | 16.83974 | 287 ft | 12 kts | 34° |
| 2026-05-07 15:07 | 52.41701 | 16.84023 | 287 ft | 11 kts | 20° |
| 2026-05-07 15:07 | 52.41717 | 16.84032 | 287 ft | 0 kts | 20° |
| 2026-05-07 15:08 | 52.41717 | 16.84033 | 287 ft | 0 kts | 20° |
| 2026-05-07 15:08 | 52.41738 | 16.84045 | 290 ft | 6 kts | 20° |
| 2026-05-07 15:08 | 52.41798 | 16.84081 | 288 ft | 10 kts | 16° |
| 2026-05-07 15:08 | 52.41834 | 16.84020 | 288 ft | 0 kts | 288° |
| 2026-05-07 15:09 | 52.41861 | 16.83883 | 292 ft | 42 kts | 288° |
| 2026-05-07 15:09 | 52.42114 | 16.82578 | 286 ft | 136 kts | 288° |
| 2026-05-07 15:10 | 52.42458 | 16.80797 | 360 ft | 186 kts | 288° |
| 2026-05-07 15:10 | 52.42831 | 16.78722 | 1097 ft | 194 kts | 290° |
| 2026-05-07 15:10 | 52.43097 | 16.77291 | 1875 ft | 193 kts | 291° |
| 2026-05-07 15:10 | 52.43502 | 16.75195 | 2725 ft | 196 kts | 290° |
| 2026-05-07 15:11 | 52.43907 | 16.73056 | 3449 ft | 198 kts | 290° |
| 2026-05-07 15:11 | 52.44350 | 16.70774 | 3520 ft | 225 kts | 290° |
| 2026-05-07 15:11 | 52.44857 | 16.68210 | 3766 ft | 239 kts | 290° |
| 2026-05-07 15:11 | 52.45372 | 16.65591 | 4165 ft | 247 kts | 290° |
| 2026-05-07 15:12 | 52.45764 | 16.62837 | 4545 ft | 261 kts | 269° |
| 2026-05-07 15:12 | 52.45197 | 16.60011 | 5198 ft | 267 kts | 236° |
| 2026-05-07 15:12 | 52.43846 | 16.58033 | 5896 ft | 270 kts | 208° |
| 2026-05-07 15:12 | 52.42021 | 16.57248 | 6616 ft | 273 kts | 181° |
| 2026-05-07 15:13 | 52.40143 | 16.57719 | 7285 ft | 276 kts | 166° |
| 2026-05-07 15:13 | 52.38313 | 16.58733 | 7921 ft | 279 kts | 161° |
| 2026-05-07 15:13 | 52.36492 | 16.59885 | 8542 ft | 282 kts | 161° |
| 2026-05-07 15:13 | 52.34675 | 16.61056 | 9179 ft | 284 kts | 161° |
| 2026-05-07 15:14 | 52.32811 | 16.62246 | 9811 ft | 286 kts | 162° |
| 2026-05-07 15:14 | 52.30943 | 16.63419 | 10321 ft | 291 kts | 162° |
| 2026-05-07 15:14 | 52.29008 | 16.64617 | 10445 ft | 310 kts | 162° |
| 2026-05-07 15:14 | 52.26933 | 16.65887 | 10586 ft | 327 kts | 162° |
| 2026-05-07 15:15 | 52.24751 | 16.67214 | 10758 ft | 342 kts | 162° |
| 2026-05-07 15:15 | 52.22498 | 16.68581 | 11171 ft | 347 kts | 162° |
| 2026-05-07 15:15 | 52.20232 | 16.69952 | 11764 ft | 348 kts | 162° |
| 2026-05-07 15:15 | 52.17945 | 16.71332 | 12364 ft | 350 kts | 162° |
| 2026-05-07 15:16 | 52.15655 | 16.72710 | 12962 ft | 352 kts | 162° |
| 2026-05-07 15:16 | 52.13353 | 16.74092 | 13545 ft | 354 kts | 162° |
| 2026-05-07 15:16 | 52.11032 | 16.75483 | 14108 ft | 356 kts | 162° |
| 2026-05-07 15:16 | 52.08727 | 16.76861 | 14676 ft | 358 kts | 162° |
| 2026-05-07 15:17 | 52.06382 | 16.78262 | 15306 ft | 360 kts | 162° |
| 2026-05-07 15:17 | 52.04031 | 16.79665 | 15940 ft | 361 kts | 162° |
| 2026-05-07 15:17 | 52.01667 | 16.81074 | 16539 ft | 363 kts | 162° |
| 2026-05-07 15:17 | 51.99284 | 16.82508 | 17129 ft | 366 kts | 162° |
| 2026-05-07 15:18 | 51.96899 | 16.83953 | 17708 ft | 369 kts | 162° |
| 2026-05-07 15:18 | 51.94482 | 16.85407 | 18284 ft | 371 kts | 162° |
| 2026-05-07 15:18 | 51.92039 | 16.86865 | 18797 ft | 373 kts | 163° |
| 2026-05-07 15:18 | 51.89602 | 16.88309 | 19337 ft | 374 kts | 163° |
| 2026-05-07 15:19 | 51.87153 | 16.89753 | 19879 ft | 375 kts | 163° |
| 2026-05-07 15:19 | 51.84708 | 16.91191 | 20398 ft | 376 kts | 163° |
| 2026-05-07 15:19 | 51.82241 | 16.92638 | 20914 ft | 377 kts | 163° |
| 2026-05-07 15:19 | 51.79767 | 16.94088 | 21430 ft | 378 kts | 163° |
| 2026-05-07 15:20 | 51.77298 | 16.95534 | 21950 ft | 379 kts | 163° |
| 2026-05-07 15:20 | 51.74835 | 16.96976 | 22421 ft | 381 kts | 164° |
| 2026-05-07 15:20 | 51.72331 | 16.98437 | 22891 ft | 382 kts | 164° |
| 2026-05-07 15:20 | 51.69837 | 16.99893 | 23361 ft | 384 kts | 164° |
| 2026-05-07 15:21 | 51.67317 | 17.01417 | 23795 ft | 385 kts | 163° |
| 2026-05-07 15:21 | 51.64810 | 17.02975 | 24195 ft | 386 kts | 163° |
| 2026-05-07 15:21 | 51.62299 | 17.04545 | 24592 ft | 387 kts | 163° |
| 2026-05-07 15:21 | 51.59786 | 17.06111 | 24975 ft | 388 kts | 163° |
| 2026-05-07 15:22 | 51.57261 | 17.07677 | 25354 ft | 389 kts | 163° |
| 2026-05-07 15:22 | 51.54735 | 17.09237 | 25714 ft | 390 kts | 163° |
| 2026-05-07 15:22 | 51.52223 | 17.10785 | 26072 ft | 391 kts | 163° |
| 2026-05-07 15:22 | 51.49682 | 17.12347 | 26417 ft | 392 kts | 163° |
| 2026-05-07 15:23 | 51.47134 | 17.13912 | 26768 ft | 393 kts | 163° |
| 2026-05-07 15:23 | 51.44579 | 17.15478 | 27105 ft | 394 kts | 163° |
| 2026-05-07 15:23 | 51.42016 | 17.17049 | 27432 ft | 395 kts | 163° |
| 2026-05-07 15:23 | 51.39444 | 17.18624 | 27751 ft | 396 kts | 163° |
| 2026-05-07 15:24 | 51.36863 | 17.20203 | 28066 ft | 397 kts | 163° |
| 2026-05-07 15:24 | 51.34281 | 17.21780 | 28366 ft | 398 kts | 163° |
| 2026-05-07 15:24 | 51.31681 | 17.23367 | 28669 ft | 400 kts | 163° |
| 2026-05-07 15:24 | 51.29083 | 17.24952 | 29013 ft | 399 kts | 163° |
| 2026-05-07 15:25 | 51.26492 | 17.26531 | 29463 ft | 397 kts | 163° |
| 2026-05-07 15:25 | 51.23923 | 17.28096 | 29947 ft | 394 kts | 163° |
| 2026-05-07 15:25 | 51.21369 | 17.29648 | 30299 ft | 392 kts | 163° |
| 2026-05-07 15:25 | 51.18833 | 17.31185 | 30514 ft | 394 kts | 163° |
| 2026-05-07 15:26 | 51.16265 | 17.32740 | 30745 ft | 395 kts | 163° |
| 2026-05-07 15:26 | 51.13705 | 17.34290 | 31015 ft | 395 kts | 163° |
| 2026-05-07 15:26 | 51.11130 | 17.35849 | 31293 ft | 394 kts | 163° |
| 2026-05-07 15:26 | 51.08566 | 17.37400 | 31544 ft | 394 kts | 163° |
| 2026-05-07 15:27 | 51.06001 | 17.38951 | 31796 ft | 394 kts | 164° |
| 2026-05-07 15:27 | 51.03435 | 17.40500 | 32035 ft | 395 kts | 164° |
| 2026-05-07 15:27 | 51.00861 | 17.42051 | 32224 ft | 396 kts | 164° |
| 2026-05-07 15:27 | 50.98277 | 17.43607 | 32394 ft | 398 kts | 164° |
| 2026-05-07 15:28 | 50.95686 | 17.45166 | 32636 ft | 397 kts | 164° |
| 2026-05-07 15:28 | 50.93108 | 17.46716 | 32921 ft | 396 kts | 164° |
| 2026-05-07 15:28 | 50.87922 | 17.49827 | 32965 ft | 399 kts | 164° |
| 2026-05-07 15:29 | 50.82782 | 17.52877 | 32962 ft | 395 kts | 165° |
| 2026-05-07 15:29 | 50.77639 | 17.55870 | 32959 ft | 392 kts | 165° |
| 2026-05-07 15:30 | 50.72531 | 17.58881 | 32948 ft | 391 kts | 164° |
| 2026-05-07 15:30 | 50.67449 | 17.61912 | 32949 ft | 390 kts | 164° |
| 2026-05-07 15:31 | 50.62362 | 17.64935 | 32952 ft | 391 kts | 164° |
| 2026-05-07 15:31 | 50.57285 | 17.67940 | 32949 ft | 393 kts | 164° |
| 2026-05-07 15:32 | 50.52151 | 17.70971 | 32950 ft | 396 kts | 164° |
| 2026-05-07 15:32 | 50.46973 | 17.74022 | 32945 ft | 399 kts | 164° |
| 2026-05-07 15:33 | 50.41756 | 17.77091 | 32943 ft | 401 kts | 164° |
| 2026-05-07 15:33 | 50.36507 | 17.80168 | 32951 ft | 403 kts | 164° |
| 2026-05-07 15:34 | 50.31244 | 17.83239 | 32933 ft | 404 kts | 164° |
| 2026-05-07 15:34 | 50.25994 | 17.86293 | 32940 ft | 405 kts | 164° |
| 2026-05-07 15:35 | 50.20708 | 17.89364 | 32940 ft | 405 kts | 165° |
| 2026-05-07 15:35 | 50.15434 | 17.92420 | 32938 ft | 404 kts | 165° |
| 2026-05-07 15:36 | 50.10162 | 17.95470 | 32940 ft | 403 kts | 165° |
| 2026-05-07 15:36 | 50.04913 | 17.98513 | 32934 ft | 403 kts | 162° |
| 2026-05-07 15:37 | 50.00064 | 18.02863 | 32941 ft | 411 kts | 149° |
| 2026-05-07 15:37 | 49.95492 | 18.08227 | 32936 ft | 411 kts | 149° |
| 2026-05-07 15:38 | 49.90933 | 18.13571 | 32933 ft | 410 kts | 149° |
| 2026-05-07 15:38 | 49.86394 | 18.18845 | 32931 ft | 410 kts | 150° |
| 2026-05-07 15:39 | 49.81827 | 18.24120 | 32942 ft | 409 kts | 150° |
| 2026-05-07 15:39 | 49.77249 | 18.29388 | 32939 ft | 410 kts | 150° |
| 2026-05-07 15:40 | 49.72669 | 18.34644 | 32940 ft | 410 kts | 150° |
| 2026-05-07 15:40 | 49.68080 | 18.39899 | 32943 ft | 411 kts | 150° |
| 2026-05-07 15:41 | 49.63509 | 18.45121 | 32943 ft | 412 kts | 150° |
| 2026-05-07 15:41 | 49.58896 | 18.50379 | 32941 ft | 413 kts | 150° |
| 2026-05-07 15:42 | 49.54269 | 18.55640 | 32957 ft | 413 kts | 150° |
| 2026-05-07 15:42 | 49.49630 | 18.60902 | 32965 ft | 415 kts | 150° |
| 2026-05-07 15:43 | 49.44969 | 18.66176 | 32965 ft | 416 kts | 150° |
| 2026-05-07 15:43 | 49.40301 | 18.71446 | 32962 ft | 417 kts | 150° |
| 2026-05-07 15:44 | 49.35620 | 18.76718 | 32959 ft | 417 kts | 151° |
| 2026-05-07 15:44 | 49.30944 | 18.81969 | 33042 ft | 421 kts | 151° |
| 2026-05-07 15:45 | 49.28574 | 18.84625 | 33147 ft | 424 kts | 150° |
| 2026-05-07 15:45 | 49.26190 | 18.87295 | 33387 ft | 424 kts | 151° |
| 2026-05-07 15:45 | 49.23815 | 18.89956 | 33759 ft | 420 kts | 151° |
| 2026-05-07 15:45 | 49.21469 | 18.92581 | 34040 ft | 419 kts | 151° |
| 2026-05-07 15:46 | 49.16739 | 18.97857 | 34318 ft | 422 kts | 151° |
| 2026-05-07 15:46 | 49.14367 | 19.00495 | 34497 ft | 422 kts | 151° |
| 2026-05-07 15:46 | 49.11995 | 19.03133 | 34671 ft | 423 kts | 151° |
| 2026-05-07 15:47 | 49.09613 | 19.05778 | 34814 ft | 423 kts | 150° |
| 2026-05-07 15:47 | 49.07229 | 19.08423 | 34938 ft | 422 kts | 150° |
| 2026-05-07 15:47 | 49.04842 | 19.11067 | 34970 ft | 425 kts | 150° |
| 2026-05-07 15:48 | 49.00047 | 19.16367 | 34993 ft | 427 kts | 150° |
| 2026-05-07 15:48 | 48.95277 | 19.21633 | 34992 ft | 426 kts | 150° |
| 2026-05-07 15:49 | 48.90481 | 19.26912 | 34988 ft | 426 kts | 150° |
| 2026-05-07 15:49 | 48.85666 | 19.32197 | 35011 ft | 427 kts | 150° |
| 2026-05-07 15:50 | 48.80841 | 19.37481 | 35002 ft | 428 kts | 150° |
| 2026-05-07 15:50 | 48.76008 | 19.42761 | 34992 ft | 428 kts | 150° |
| 2026-05-07 15:51 | 48.71178 | 19.48027 | 34989 ft | 427 kts | 150° |
| 2026-05-07 15:51 | 48.66356 | 19.53270 | 34993 ft | 426 kts | 150° |
| 2026-05-07 15:52 | 48.61573 | 19.58459 | 34996 ft | 425 kts | 150° |
| 2026-05-07 15:52 | 48.56765 | 19.63661 | 34996 ft | 425 kts | 150° |
| 2026-05-07 15:53 | 48.51958 | 19.68851 | 34997 ft | 425 kts | 150° |
| 2026-05-07 15:53 | 48.47150 | 19.74030 | 34991 ft | 425 kts | 150° |
| 2026-05-07 15:54 | 48.42335 | 19.79202 | 34996 ft | 425 kts | 150° |
| 2026-05-07 15:54 | 48.37505 | 19.84379 | 34999 ft | 425 kts | 150° |
| 2026-05-07 15:55 | 48.32705 | 19.89512 | 34995 ft | 426 kts | 151° |
| 2026-05-07 15:55 | 48.27868 | 19.94673 | 35011 ft | 427 kts | 151° |
| 2026-05-07 15:56 | 48.23009 | 19.99847 | 34998 ft | 429 kts | 150° |
| 2026-05-07 15:56 | 48.18135 | 20.05023 | 35001 ft | 430 kts | 150° |
| 2026-05-07 15:57 | 48.13205 | 20.10083 | 34999 ft | 430 kts | 152° |
| 2026-05-07 15:57 | 48.08212 | 20.15029 | 34994 ft | 430 kts | 152° |
| 2026-05-07 15:58 | 48.03254 | 20.19934 | 35005 ft | 430 kts | 152° |
| 2026-05-07 15:58 | 47.98260 | 20.24886 | 35003 ft | 431 kts | 152° |
| 2026-05-07 15:59 | 47.94107 | 20.29005 | 35000 ft | 431 kts | 152° |
| 2026-05-07 15:59 | 47.89106 | 20.33958 | 34996 ft | 432 kts | 152° |
| 2026-05-07 16:00 | 47.84105 | 20.38898 | 35006 ft | 432 kts | 152° |
| 2026-05-07 16:00 | 47.79091 | 20.43843 | 35006 ft | 429 kts | 152° |
| 2026-05-07 16:01 | 47.74115 | 20.48736 | 35001 ft | 428 kts | 152° |
| 2026-05-07 16:01 | 47.69181 | 20.53576 | 34999 ft | 427 kts | 152° |
| 2026-05-07 16:02 | 47.64221 | 20.58429 | 35006 ft | 426 kts | 152° |
| 2026-05-07 16:02 | 47.59257 | 20.63274 | 34997 ft | 427 kts | 152° |
| 2026-05-07 16:03 | 47.54283 | 20.68118 | 35010 ft | 429 kts | 152° |
| 2026-05-07 16:03 | 47.49280 | 20.72979 | 35014 ft | 431 kts | 152° |
| 2026-05-07 16:04 | 47.44252 | 20.77854 | 35015 ft | 433 kts | 152° |
| 2026-05-07 16:04 | 47.39198 | 20.82743 | 35013 ft | 435 kts | 152° |
| 2026-05-07 16:05 | 47.34115 | 20.87650 | 35017 ft | 437 kts | 152° |
| 2026-05-07 16:05 | 47.29043 | 20.92534 | 35018 ft | 439 kts | 152° |
| 2026-05-07 16:06 | 47.23925 | 20.97452 | 35020 ft | 440 kts | 152° |
| 2026-05-07 16:06 | 47.18796 | 21.02368 | 35018 ft | 440 kts | 152° |
| 2026-05-07 16:07 | 47.13661 | 21.07278 | 35019 ft | 440 kts | 152° |
| 2026-05-07 16:07 | 47.08518 | 21.12185 | 35019 ft | 440 kts | 152° |
| 2026-05-07 16:08 | 47.03370 | 21.17085 | 35020 ft | 440 kts | 152° |
| 2026-05-07 16:08 | 46.98243 | 21.21953 | 35020 ft | 439 kts | 152° |
| 2026-05-07 16:09 | 46.93148 | 21.26781 | 35016 ft | 438 kts | 152° |
| 2026-05-07 16:09 | 46.88039 | 21.31609 | 35023 ft | 438 kts | 152° |
| 2026-05-07 16:10 | 46.82919 | 21.36437 | 35023 ft | 437 kts | 152° |
| 2026-05-07 16:10 | 46.77838 | 21.41219 | 35023 ft | 437 kts | 152° |
| 2026-05-07 16:11 | 46.72852 | 21.46343 | 35024 ft | 440 kts | 146° |
| 2026-05-07 16:11 | 46.68126 | 21.51937 | 35024 ft | 441 kts | 145° |
| 2026-05-07 16:12 | 46.63371 | 21.57613 | 35025 ft | 441 kts | 146° |
| 2026-05-07 16:12 | 46.58598 | 21.63228 | 35024 ft | 442 kts | 146° |
| 2026-05-07 16:13 | 46.53793 | 21.68821 | 35025 ft | 442 kts | 146° |
| 2026-05-07 16:13 | 46.48971 | 21.74405 | 35021 ft | 443 kts | 146° |
| 2026-05-07 16:14 | 46.44142 | 21.79985 | 35027 ft | 444 kts | 146° |
| 2026-05-07 16:14 | 46.39300 | 21.85567 | 35032 ft | 445 kts | 146° |
| 2026-05-07 16:15 | 46.34480 | 21.91112 | 35030 ft | 445 kts | 146° |
| 2026-05-07 16:15 | 46.29626 | 21.96685 | 35027 ft | 446 kts | 146° |
| 2026-05-07 16:16 | 46.24755 | 22.02263 | 35030 ft | 447 kts | 146° |
| 2026-05-07 16:16 | 46.19883 | 22.07830 | 35024 ft | 447 kts | 146° |
| 2026-05-07 16:17 | 46.15001 | 22.13394 | 35023 ft | 447 kts | 146° |
| 2026-05-07 16:17 | 46.10113 | 22.18952 | 35027 ft | 447 kts | 146° |
| 2026-05-07 16:18 | 46.05250 | 22.24470 | 35028 ft | 447 kts | 146° |
| 2026-05-07 16:18 | 46.00351 | 22.30014 | 35029 ft | 448 kts | 146° |
| 2026-05-07 16:19 | 45.95443 | 22.35557 | 35034 ft | 449 kts | 146° |
| 2026-05-07 16:19 | 45.90516 | 22.41108 | 35029 ft | 450 kts | 146° |
| 2026-05-07 16:20 | 45.85607 | 22.46626 | 35040 ft | 451 kts | 146° |
| 2026-05-07 16:20 | 45.80653 | 22.52181 | 35031 ft | 453 kts | 146° |
| 2026-05-07 16:21 | 45.75682 | 22.57744 | 35050 ft | 454 kts | 146° |
| 2026-05-07 16:21 | 45.70692 | 22.63314 | 35050 ft | 455 kts | 146° |
| 2026-05-07 16:22 | 45.65699 | 22.68875 | 35046 ft | 455 kts | 146° |
| 2026-05-07 16:22 | 45.60693 | 22.74437 | 35044 ft | 455 kts | 146° |
| 2026-05-07 16:23 | 45.55729 | 22.79940 | 35035 ft | 455 kts | 146° |
| 2026-05-07 16:23 | 45.50724 | 22.85476 | 35060 ft | 454 kts | 146° |
| 2026-05-07 16:24 | 45.45723 | 22.90994 | 35056 ft | 454 kts | 146° |
| 2026-05-07 16:24 | 45.40718 | 22.96504 | 35058 ft | 454 kts | 146° |
| 2026-05-07 16:25 | 45.35721 | 23.01993 | 35065 ft | 453 kts | 146° |
| 2026-05-07 16:25 | 45.30757 | 23.07433 | 35060 ft | 454 kts | 146° |
| 2026-05-07 16:26 | 45.25721 | 23.12938 | 35067 ft | 454 kts | 146° |
| 2026-05-07 16:26 | 45.20749 | 23.18362 | 35048 ft | 454 kts | 146° |
| 2026-05-07 16:27 | 45.15762 | 23.23789 | 35057 ft | 453 kts | 146° |
| 2026-05-07 16:27 | 45.10743 | 23.29240 | 35066 ft | 453 kts | 146° |
| 2026-05-07 16:28 | 45.05746 | 23.34653 | 35064 ft | 454 kts | 146° |
| 2026-05-07 16:28 | 45.00709 | 23.40097 | 35053 ft | 455 kts | 146° |
| 2026-05-07 16:29 | 44.95689 | 23.45512 | 35057 ft | 456 kts | 145° |
| 2026-05-07 16:29 | 44.90645 | 23.50940 | 35046 ft | 457 kts | 145° |
| 2026-05-07 16:30 | 44.85552 | 23.56408 | 35054 ft | 458 kts | 145° |
| 2026-05-07 16:30 | 44.80495 | 23.61825 | 35049 ft | 459 kts | 145° |
| 2026-05-07 16:31 | 44.75394 | 23.67276 | 35049 ft | 461 kts | 145° |
| 2026-05-07 16:31 | 44.70277 | 23.72733 | 35046 ft | 462 kts | 145° |
| 2026-05-07 16:32 | 44.65187 | 23.78149 | 35049 ft | 463 kts | 145° |
| 2026-05-07 16:32 | 44.60031 | 23.83622 | 35054 ft | 464 kts | 145° |
| 2026-05-07 16:33 | 44.54878 | 23.89081 | 35036 ft | 465 kts | 145° |
| 2026-05-07 16:33 | 44.49700 | 23.94552 | 35043 ft | 466 kts | 145° |
| 2026-05-07 16:34 | 44.44519 | 24.00014 | 35052 ft | 466 kts | 145° |
| 2026-05-07 16:34 | 44.39353 | 24.05449 | 35045 ft | 467 kts | 145° |
| 2026-05-07 16:35 | 44.34137 | 24.10923 | 35049 ft | 467 kts | 145° |
| 2026-05-07 16:35 | 44.28932 | 24.16373 | 35043 ft | 467 kts | 145° |
| 2026-05-07 16:36 | 44.23722 | 24.21817 | 35049 ft | 467 kts | 145° |
| 2026-05-07 16:36 | 44.18511 | 24.27248 | 35044 ft | 468 kts | 145° |
| 2026-05-07 16:37 | 44.13296 | 24.32673 | 35040 ft | 468 kts | 145° |
| 2026-05-07 16:37 | 44.08101 | 24.38063 | 35038 ft | 468 kts | 145° |
| 2026-05-07 16:38 | 44.02874 | 24.43475 | 35041 ft | 469 kts | 144° |
| 2026-05-07 16:38 | 43.97640 | 24.48882 | 35041 ft | 469 kts | 145° |
| 2026-05-07 16:39 | 43.92392 | 24.54292 | 35042 ft | 470 kts | 145° |
| 2026-05-07 16:39 | 43.87131 | 24.59701 | 35039 ft | 470 kts | 144° |
| 2026-05-07 16:40 | 43.81872 | 24.65098 | 35038 ft | 471 kts | 145° |
| 2026-05-07 16:40 | 43.76605 | 24.70490 | 35037 ft | 471 kts | 145° |
| 2026-05-07 16:41 | 43.71323 | 24.75886 | 35038 ft | 472 kts | 144° |
| 2026-05-07 16:41 | 43.66035 | 24.81275 | 35036 ft | 473 kts | 145° |
| 2026-05-07 16:42 | 43.60730 | 24.86670 | 35043 ft | 473 kts | 144° |
| 2026-05-07 16:42 | 43.55453 | 24.92024 | 35036 ft | 474 kts | 145° |
| 2026-05-07 16:43 | 43.50129 | 24.97414 | 35035 ft | 475 kts | 144° |
| 2026-05-07 16:43 | 43.44797 | 25.02800 | 35036 ft | 475 kts | 144° |
| 2026-05-07 16:44 | 43.39479 | 25.08160 | 35036 ft | 475 kts | 144° |
| 2026-05-07 16:44 | 43.34139 | 25.13530 | 35036 ft | 476 kts | 144° |
| 2026-05-07 16:45 | 43.28790 | 25.18897 | 35038 ft | 476 kts | 144° |
| 2026-05-07 16:45 | 43.23453 | 25.24240 | 35031 ft | 477 kts | 144° |
| 2026-05-07 16:46 | 43.18057 | 25.29631 | 35036 ft | 478 kts | 144° |
| 2026-05-07 16:46 | 43.12679 | 25.34991 | 35029 ft | 478 kts | 144° |
| 2026-05-07 16:47 | 43.08230 | 25.39415 | 35028 ft | 479 kts | 144° |
| 2026-05-07 16:47 | 43.02795 | 25.44810 | 35033 ft | 479 kts | 144° |
| 2026-05-07 16:48 | 42.97392 | 25.50162 | 35030 ft | 480 kts | 144° |
| 2026-05-07 16:48 | 42.92019 | 25.55472 | 35031 ft | 481 kts | 144° |
| 2026-05-07 16:49 | 42.86580 | 25.60835 | 35032 ft | 481 kts | 144° |
| 2026-05-07 16:49 | 42.81159 | 25.66169 | 35053 ft | 481 kts | 144° |
| 2026-05-07 16:50 | 42.75722 | 25.71507 | 35043 ft | 482 kts | 144° |
| 2026-05-07 16:50 | 42.70270 | 25.76847 | 35051 ft | 483 kts | 144° |
| 2026-05-07 16:51 | 42.64803 | 25.82190 | 35050 ft | 484 kts | 144° |
| 2026-05-07 16:51 | 42.59332 | 25.87526 | 35043 ft | 485 kts | 144° |
| 2026-05-07 16:52 | 42.53903 | 25.92809 | 35045 ft | 486 kts | 144° |
| 2026-05-07 16:52 | 42.48397 | 25.98155 | 35044 ft | 486 kts | 144° |
| 2026-05-07 16:53 | 42.42884 | 26.03496 | 35042 ft | 487 kts | 144° |
| 2026-05-07 16:53 | 42.37390 | 26.08807 | 35033 ft | 488 kts | 144° |
| 2026-05-07 16:54 | 42.31871 | 26.14130 | 35036 ft | 488 kts | 144° |
| 2026-05-07 16:54 | 42.26308 | 26.19484 | 35041 ft | 489 kts | 144° |
| 2026-05-07 16:55 | 42.20799 | 26.24775 | 35038 ft | 489 kts | 144° |
| 2026-05-07 16:55 | 42.15275 | 26.30068 | 35042 ft | 489 kts | 144° |
| 2026-05-07 16:56 | 42.09725 | 26.35375 | 35044 ft | 489 kts | 144° |
| 2026-05-07 16:56 | 42.01394 | 26.43320 | 35050 ft | 489 kts | 144° |
| 2026-05-07 16:57 | 41.95829 | 26.48612 | 35048 ft | 489 kts | 144° |
| 2026-05-07 16:57 | 41.90269 | 26.53891 | 35048 ft | 490 kts | 144° |
| 2026-05-07 16:58 | 41.84688 | 26.59176 | 35050 ft | 490 kts | 144° |
| 2026-05-07 16:58 | 41.79150 | 26.64418 | 35048 ft | 491 kts | 144° |
| 2026-05-07 16:59 | 41.73562 | 26.69698 | 35058 ft | 491 kts | 144° |
| 2026-05-07 16:59 | 41.67967 | 26.74976 | 35062 ft | 492 kts | 144° |
| 2026-05-07 17:00 | 41.62365 | 26.80248 | 35075 ft | 493 kts | 144° |
| 2026-05-07 17:00 | 41.56734 | 26.85536 | 35072 ft | 495 kts | 144° |
| 2026-05-07 17:01 | 41.51083 | 26.90831 | 35082 ft | 497 kts | 144° |
| 2026-05-07 17:01 | 41.45480 | 26.96070 | 35080 ft | 498 kts | 144° |
| 2026-05-07 17:02 | 41.39721 | 27.01433 | 35078 ft | 499 kts | 144° |
| 2026-05-07 17:02 | 41.34073 | 27.06679 | 35076 ft | 498 kts | 144° |
| 2026-05-07 17:03 | 41.28386 | 27.11955 | 35084 ft | 497 kts | 144° |
| 2026-05-07 17:03 | 41.22710 | 27.17210 | 35086 ft | 496 kts | 144° |
| 2026-05-07 17:04 | 41.17047 | 27.22438 | 35087 ft | 495 kts | 144° |
| 2026-05-07 17:04 | 41.11395 | 27.27643 | 35093 ft | 494 kts | 144° |
| 2026-05-07 17:05 | 41.05749 | 27.32834 | 35099 ft | 493 kts | 144° |
| 2026-05-07 17:05 | 41.00117 | 27.38004 | 35101 ft | 492 kts | 144° |
| 2026-05-07 17:06 | 40.94391 | 27.42991 | 35092 ft | 492 kts | 153° |
| 2026-05-07 17:06 | 40.88137 | 27.46461 | 35105 ft | 491 kts | 160° |
| 2026-05-07 17:07 | 40.81769 | 27.49686 | 35109 ft | 491 kts | 160° |
| 2026-05-07 17:07 | 40.75381 | 27.52995 | 35108 ft | 492 kts | 159° |
| 2026-05-07 17:08 | 40.69024 | 27.56338 | 35112 ft | 492 kts | 159° |
| 2026-05-07 17:08 | 40.62650 | 27.59690 | 35113 ft | 493 kts | 159° |
| 2026-05-07 17:09 | 40.56266 | 27.63035 | 35115 ft | 494 kts | 159° |
| 2026-05-07 17:09 | 40.49880 | 27.66378 | 35111 ft | 494 kts | 159° |
| 2026-05-07 17:10 | 40.43498 | 27.69746 | 35112 ft | 494 kts | 159° |
| 2026-05-07 17:10 | 40.37158 | 27.73093 | 35102 ft | 494 kts | 159° |
| 2026-05-07 17:11 | 40.30777 | 27.76452 | 35100 ft | 493 kts | 159° |
| 2026-05-07 17:11 | 40.24422 | 27.79786 | 35109 ft | 493 kts | 159° |
| 2026-05-07 17:12 | 40.18027 | 27.83135 | 35103 ft | 492 kts | 159° |
| 2026-05-07 17:12 | 40.11705 | 27.86440 | 35109 ft | 491 kts | 159° |
| 2026-05-07 17:13 | 40.05356 | 27.89752 | 35101 ft | 491 kts | 159° |
| 2026-05-07 17:13 | 39.99011 | 27.93055 | 35102 ft | 491 kts | 159° |
| 2026-05-07 17:14 | 39.92676 | 27.96348 | 35104 ft | 490 kts | 159° |
| 2026-05-07 17:14 | 39.86369 | 27.99618 | 35103 ft | 489 kts | 160° |
| 2026-05-07 17:15 | 39.80036 | 28.02818 | 35104 ft | 488 kts | 160° |
| 2026-05-07 17:15 | 39.73730 | 28.05952 | 35107 ft | 488 kts | 160° |
| 2026-05-07 17:16 | 39.67346 | 28.09127 | 35095 ft | 487 kts | 160° |
| 2026-05-07 17:16 | 39.61007 | 28.12284 | 35102 ft | 487 kts | 160° |
| 2026-05-07 17:17 | 39.54712 | 28.15416 | 35111 ft | 488 kts | 160° |
| 2026-05-07 17:17 | 39.48480 | 28.18510 | 35118 ft | 488 kts | 160° |
| 2026-05-07 17:18 | 39.42135 | 28.21654 | 34957 ft | 484 kts | 161° |
| 2026-05-07 17:18 | 39.39037 | 28.23189 | 35027 ft | 471 kts | 161° |
| 2026-05-07 17:18 | 39.36066 | 28.24658 | 35045 ft | 462 kts | 161° |
| 2026-05-07 17:19 | 39.30110 | 28.27595 | 35136 ft | 461 kts | 161° |
| 2026-05-07 17:19 | 39.24389 | 28.30389 | 35143 ft | 463 kts | 161° |
| 2026-05-07 17:20 | 39.18355 | 28.33319 | 35153 ft | 466 kts | 161° |
| 2026-05-07 17:20 | 39.12299 | 28.36259 | 35151 ft | 469 kts | 161° |
| 2026-05-07 17:21 | 39.06169 | 28.39232 | 35146 ft | 471 kts | 161° |
| 2026-05-07 17:21 | 39.00039 | 28.42264 | 35150 ft | 473 kts | 161° |
| 2026-05-07 17:22 | 38.93912 | 28.45375 | 35136 ft | 473 kts | 160° |
| 2026-05-07 17:22 | 38.87846 | 28.48446 | 35143 ft | 473 kts | 161° |
| 2026-05-07 17:23 | 38.81761 | 28.51508 | 35144 ft | 472 kts | 161° |
| 2026-05-07 17:23 | 38.75651 | 28.54573 | 35143 ft | 471 kts | 161° |
| 2026-05-07 17:24 | 38.69570 | 28.57618 | 35140 ft | 470 kts | 161° |
| 2026-05-07 17:24 | 38.63458 | 28.60675 | 35142 ft | 470 kts | 161° |
| 2026-05-07 17:25 | 38.57444 | 28.63942 | 35132 ft | 470 kts | 152° |
| 2026-05-07 17:25 | 38.52089 | 28.68560 | 35152 ft | 471 kts | 145° |
| 2026-05-07 17:26 | 38.46787 | 28.73447 | 35149 ft | 470 kts | 145° |
| 2026-05-07 17:26 | 38.41456 | 28.78289 | 35155 ft | 470 kts | 146° |
| 2026-05-07 17:27 | 38.36131 | 28.83056 | 35152 ft | 471 kts | 146° |
| 2026-05-07 17:27 | 38.30759 | 28.87838 | 35148 ft | 471 kts | 146° |
| 2026-05-07 17:28 | 38.25400 | 28.92601 | 35158 ft | 472 kts | 146° |
| 2026-05-07 17:28 | 38.20547 | 28.96909 | 35154 ft | 472 kts | 146° |
| 2026-05-07 17:29 | 38.15139 | 29.01703 | 35153 ft | 473 kts | 146° |
| 2026-05-07 17:29 | 38.09775 | 29.06449 | 35158 ft | 473 kts | 146° |
| 2026-05-07 17:30 | 38.04408 | 29.11188 | 35162 ft | 474 kts | 146° |
| 2026-05-07 17:30 | 37.98970 | 29.15982 | 35157 ft | 475 kts | 147° |
| 2026-05-07 17:31 | 37.93567 | 29.20737 | 35157 ft | 475 kts | 146° |
| 2026-05-07 17:31 | 37.88131 | 29.25514 | 35170 ft | 475 kts | 147° |
| 2026-05-07 17:32 | 37.82706 | 29.30269 | 35173 ft | 475 kts | 147° |
| 2026-05-07 17:32 | 37.78206 | 29.34202 | 35177 ft | 475 kts | 147° |
| 2026-05-07 17:33 | 37.71851 | 29.39747 | 35182 ft | 475 kts | 147° |
| 2026-05-07 17:33 | 37.66411 | 29.44487 | 35183 ft | 475 kts | 147° |
| 2026-05-07 17:34 | 37.61885 | 29.48424 | 35176 ft | 475 kts | 147° |
| 2026-05-07 17:34 | 37.56467 | 29.53130 | 35179 ft | 475 kts | 147° |
| 2026-05-07 17:35 | 37.50981 | 29.57887 | 35181 ft | 475 kts | 147° |
| 2026-05-07 17:35 | 37.45555 | 29.62583 | 35189 ft | 476 kts | 147° |
| 2026-05-07 17:36 | 37.40053 | 29.67337 | 35175 ft | 476 kts | 147° |
| 2026-05-07 17:36 | 37.34632 | 29.72012 | 35182 ft | 476 kts | 147° |
| 2026-05-07 17:37 | 37.29173 | 29.76724 | 35183 ft | 476 kts | 147° |
| 2026-05-07 17:37 | 37.23707 | 29.81444 | 35186 ft | 476 kts | 147° |
| 2026-05-07 17:38 | 37.18246 | 29.86152 | 35194 ft | 478 kts | 147° |
| 2026-05-07 17:38 | 37.12820 | 29.90820 | 35321 ft | 484 kts | 147° |
| 2026-05-07 17:39 | 37.10038 | 29.93208 | 35473 ft | 485 kts | 147° |
| 2026-05-07 17:39 | 37.07247 | 29.95594 | 35688 ft | 485 kts | 147° |
| 2026-05-07 17:39 | 37.04457 | 29.97972 | 35894 ft | 484 kts | 147° |
| 2026-05-07 17:39 | 37.01672 | 30.00343 | 36043 ft | 485 kts | 147° |
| 2026-05-07 17:40 | 36.98870 | 30.02727 | 36189 ft | 486 kts | 147° |
| 2026-05-07 17:40 | 36.96076 | 30.05105 | 36413 ft | 485 kts | 147° |
| 2026-05-07 17:40 | 36.93284 | 30.07480 | 36655 ft | 484 kts | 147° |
| 2026-05-07 17:40 | 36.90499 | 30.09847 | 36859 ft | 484 kts | 147° |
| 2026-05-07 17:41 | 36.87713 | 30.12213 | 37001 ft | 484 kts | 147° |
| 2026-05-07 17:41 | 36.84971 | 30.14538 | 37122 ft | 485 kts | 147° |
| 2026-05-07 17:41 | 36.79377 | 30.19281 | 37172 ft | 486 kts | 147° |
| 2026-05-07 17:42 | 36.73777 | 30.24027 | 37154 ft | 486 kts | 147° |
| 2026-05-07 17:42 | 36.68178 | 30.28765 | 37164 ft | 487 kts | 147° |
| 2026-05-07 17:43 | 36.62548 | 30.33522 | 37141 ft | 489 kts | 147° |
| 2026-05-07 17:43 | 36.56919 | 30.38267 | 37134 ft | 488 kts | 147° |
| 2026-05-07 17:44 | 36.51296 | 30.43000 | 37131 ft | 488 kts | 148° |
| 2026-05-07 17:44 | 36.45662 | 30.47734 | 37118 ft | 487 kts | 147° |
| 2026-05-07 17:45 | 36.40045 | 30.52445 | 37107 ft | 486 kts | 147° |
| 2026-05-07 17:45 | 36.34452 | 30.57128 | 37104 ft | 484 kts | 147° |
| 2026-05-07 17:46 | 36.28913 | 30.61757 | 37105 ft | 482 kts | 148° |
| 2026-05-07 17:46 | 36.23358 | 30.66392 | 37110 ft | 481 kts | 148° |
| 2026-05-07 17:47 | 36.17801 | 30.71020 | 37121 ft | 481 kts | 148° |
| 2026-05-07 17:47 | 36.12234 | 30.75650 | 37118 ft | 482 kts | 148° |
| 2026-05-07 17:48 | 36.06620 | 30.80088 | 37103 ft | 481 kts | 156° |
| 2026-05-07 17:48 | 36.00319 | 30.82627 | 37125 ft | 474 kts | 175° |
| 2026-05-07 17:49 | 35.93773 | 30.83168 | 37125 ft | 471 kts | 182° |
| 2026-05-07 17:49 | 35.87197 | 30.83465 | 37125 ft | 473 kts | 182° |
| 2026-05-07 17:50 | 35.80599 | 30.83833 | 37132 ft | 476 kts | 181° |
| 2026-05-07 17:50 | 35.73964 | 30.84244 | 37125 ft | 478 kts | 181° |
| 2026-05-07 17:51 | 35.67318 | 30.84656 | 37128 ft | 479 kts | 181° |
| 2026-05-07 17:51 | 35.60653 | 30.85059 | 37132 ft | 480 kts | 182° |
| 2026-05-07 17:52 | 35.54023 | 30.85310 | 37134 ft | 479 kts | 183° |
| 2026-05-07 17:52 | 35.47353 | 30.85505 | 37137 ft | 479 kts | 183° |
| 2026-05-07 17:53 | 35.40684 | 30.85718 | 37133 ft | 479 kts | 183° |
| 2026-05-07 17:53 | 35.34027 | 30.85946 | 37135 ft | 478 kts | 182° |
| 2026-05-07 17:54 | 35.27370 | 30.86174 | 37131 ft | 478 kts | 182° |
| 2026-05-07 17:54 | 35.20724 | 30.86401 | 37140 ft | 477 kts | 183° |
| 2026-05-07 17:55 | 35.14081 | 30.86623 | 37142 ft | 477 kts | 183° |
| 2026-05-07 17:55 | 35.07454 | 30.86836 | 37144 ft | 476 kts | 183° |
| 2026-05-07 17:56 | 35.00861 | 30.87046 | 37140 ft | 476 kts | 183° |
| 2026-05-07 17:56 | 34.94219 | 30.87259 | 37141 ft | 477 kts | 183° |
| 2026-05-07 17:57 | 34.88661 | 30.87437 | 37150 ft | 477 kts | 183° |
| 2026-05-07 17:57 | 34.80930 | 30.87685 | 37149 ft | 478 kts | 183° |
| 2026-05-07 17:58 | 34.74268 | 30.87898 | 37129 ft | 479 kts | 183° |
| 2026-05-07 17:58 | 34.67593 | 30.88112 | 37146 ft | 480 kts | 183° |
| 2026-05-07 17:59 | 34.60902 | 30.88327 | 37145 ft | 482 kts | 182° |
| 2026-05-07 17:59 | 34.54197 | 30.88648 | 37143 ft | 483 kts | 182° |
| 2026-05-07 18:00 | 34.47471 | 30.89015 | 37138 ft | 484 kts | 182° |
| 2026-05-07 18:00 | 34.40781 | 30.89365 | 37143 ft | 485 kts | 182° |
| 2026-05-07 18:01 | 34.34035 | 30.89707 | 37152 ft | 486 kts | 182° |
| 2026-05-07 18:01 | 34.27269 | 30.90049 | 37143 ft | 486 kts | 182° |
| 2026-05-07 18:02 | 34.17092 | 30.90590 | 37141 ft | 487 kts | 181° |
| 2026-05-07 18:03 | 34.10312 | 30.90971 | 37145 ft | 488 kts | 181° |
| 2026-05-07 18:03 | 34.03520 | 30.91348 | 37145 ft | 488 kts | 181° |
| 2026-05-07 18:04 | 33.96737 | 30.91721 | 37141 ft | 488 kts | 181° |
| 2026-05-07 18:04 | 33.89994 | 30.92039 | 37138 ft | 488 kts | 182° |
| 2026-05-07 18:05 | 33.83199 | 30.92279 | 37140 ft | 488 kts | 182° |
| 2026-05-07 18:05 | 33.76403 | 30.92517 | 37143 ft | 488 kts | 182° |
| 2026-05-07 18:06 | 33.69604 | 30.92768 | 37143 ft | 489 kts | 182° |
| 2026-05-07 18:06 | 33.62799 | 30.93025 | 37139 ft | 489 kts | 182° |
| 2026-05-07 18:07 | 33.55992 | 30.93282 | 37141 ft | 489 kts | 182° |
| 2026-05-07 18:07 | 33.49174 | 30.93538 | 37143 ft | 490 kts | 182° |
| 2026-05-07 18:08 | 33.42356 | 30.93793 | 37144 ft | 490 kts | 182° |
| 2026-05-07 18:08 | 33.35531 | 30.94048 | 37143 ft | 491 kts | 182° |
| 2026-05-07 18:09 | 33.28750 | 30.94301 | 37143 ft | 491 kts | 182° |
| 2026-05-07 18:09 | 33.21910 | 30.94557 | 37142 ft | 491 kts | 182° |
| 2026-05-07 18:10 | 33.15065 | 30.94811 | 37144 ft | 492 kts | 182° |
| 2026-05-07 18:10 | 33.08210 | 30.95125 | 37141 ft | 493 kts | 180° |
| 2026-05-07 18:11 | 33.01357 | 30.95849 | 37143 ft | 495 kts | 178° |
| 2026-05-07 18:11 | 32.94540 | 30.96686 | 37137 ft | 495 kts | 178° |
| 2026-05-07 18:12 | 32.87684 | 30.97492 | 37140 ft | 495 kts | 178° |
| 2026-05-07 18:12 | 32.80820 | 30.98263 | 37141 ft | 495 kts | 178° |
| 2026-05-07 18:13 | 32.73966 | 30.99022 | 37141 ft | 495 kts | 178° |
| 2026-05-07 18:13 | 32.67102 | 30.99781 | 37138 ft | 495 kts | 178° |
| 2026-05-07 18:14 | 32.60243 | 31.00541 | 37138 ft | 495 kts | 178° |
| 2026-05-07 18:14 | 32.53379 | 31.01301 | 37136 ft | 495 kts | 178° |
| 2026-05-07 18:15 | 32.46518 | 31.02060 | 37134 ft | 495 kts | 178° |
| 2026-05-07 18:15 | 32.39655 | 31.02817 | 37135 ft | 495 kts | 178° |
| 2026-05-07 18:16 | 32.32833 | 31.03569 | 37135 ft | 495 kts | 178° |
| 2026-05-07 18:16 | 32.25966 | 31.04325 | 37136 ft | 495 kts | 178° |
| 2026-05-07 18:17 | 32.19092 | 31.05080 | 37134 ft | 495 kts | 178° |
| 2026-05-07 18:17 | 32.12221 | 31.05834 | 37136 ft | 495 kts | 178° |
| 2026-05-07 18:18 | 32.05402 | 31.06581 | 37133 ft | 495 kts | 178° |
| 2026-05-07 18:18 | 31.98523 | 31.07333 | 37132 ft | 496 kts | 178° |
| 2026-05-07 18:19 | 31.91654 | 31.08084 | 37134 ft | 496 kts | 178° |
| 2026-05-07 18:19 | 31.84769 | 31.08835 | 37130 ft | 496 kts | 178° |
| 2026-05-07 18:20 | 31.77899 | 31.09584 | 37131 ft | 496 kts | 178° |
| 2026-05-07 18:20 | 31.72181 | 31.10206 | 37125 ft | 496 kts | 178° |
| 2026-05-07 18:21 | 31.65299 | 31.10954 | 37126 ft | 497 kts | 178° |
| 2026-05-07 18:21 | 31.57300 | 31.11823 | 37132 ft | 497 kts | 178° |
| 2026-05-07 18:22 | 31.51525 | 31.12492 | 37124 ft | 498 kts | 175° |
| 2026-05-07 18:22 | 31.44700 | 31.13716 | 37122 ft | 499 kts | 173° |
| 2026-05-07 18:23 | 31.37856 | 31.15058 | 37120 ft | 499 kts | 173° |
| 2026-05-07 18:23 | 31.31000 | 31.16338 | 37128 ft | 499 kts | 173° |
| 2026-05-07 18:24 | 31.24138 | 31.17592 | 37117 ft | 499 kts | 173° |
| 2026-05-07 18:24 | 31.17280 | 31.18866 | 37114 ft | 499 kts | 173° |
| 2026-05-07 18:25 | 31.10474 | 31.20143 | 37117 ft | 498 kts | 173° |
| 2026-05-07 18:25 | 31.03630 | 31.21424 | 37116 ft | 498 kts | 173° |
| 2026-05-07 18:26 | 30.96785 | 31.22701 | 37111 ft | 498 kts | 173° |
| 2026-05-07 18:26 | 30.89937 | 31.23975 | 37111 ft | 497 kts | 173° |
| 2026-05-07 18:27 | 30.83104 | 31.25245 | 37106 ft | 497 kts | 173° |
| 2026-05-07 18:27 | 30.76275 | 31.26512 | 37101 ft | 497 kts | 173° |
| 2026-05-07 18:28 | 30.69448 | 31.27778 | 37102 ft | 496 kts | 173° |
| 2026-05-07 18:28 | 30.62669 | 31.29032 | 37099 ft | 496 kts | 173° |
| 2026-05-07 18:29 | 30.55847 | 31.30293 | 37097 ft | 496 kts | 173° |
| 2026-05-07 18:29 | 30.49041 | 31.31550 | 37095 ft | 496 kts | 173° |
| 2026-05-07 18:30 | 30.42215 | 31.32803 | 37098 ft | 496 kts | 173° |
| 2026-05-07 18:30 | 30.35401 | 31.34042 | 37095 ft | 496 kts | 173° |
| 2026-05-07 18:31 | 30.28585 | 31.35281 | 37098 ft | 496 kts | 173° |
| 2026-05-07 18:31 | 30.21807 | 31.36513 | 37100 ft | 496 kts | 173° |
| 2026-05-07 18:32 | 30.14992 | 31.37750 | 37104 ft | 496 kts | 173° |
| 2026-05-07 18:32 | 30.08380 | 31.40018 | 37107 ft | 498 kts | 154° |
| 2026-05-07 18:33 | 30.02538 | 31.44271 | 37124 ft | 496 kts | 141° |
| 2026-05-07 18:33 | 29.97038 | 31.49078 | 37097 ft | 497 kts | 141° |
| 2026-05-07 18:34 | 29.91514 | 31.53886 | 37086 ft | 497 kts | 141° |
| 2026-05-07 18:34 | 29.86003 | 31.58610 | 37086 ft | 497 kts | 142° |
| 2026-05-07 18:35 | 29.80437 | 31.63344 | 37072 ft | 496 kts | 142° |
| 2026-05-07 18:35 | 29.74880 | 31.68060 | 37066 ft | 496 kts | 142° |
| 2026-05-07 18:36 | 29.69332 | 31.72764 | 37067 ft | 495 kts | 142° |
| 2026-05-07 18:36 | 29.63784 | 31.77465 | 37067 ft | 495 kts | 142° |
| 2026-05-07 18:37 | 29.58250 | 31.82147 | 37072 ft | 494 kts | 142° |
| 2026-05-07 18:37 | 29.52716 | 31.86823 | 37070 ft | 494 kts | 142° |
| 2026-05-07 18:38 | 29.47212 | 31.91468 | 37063 ft | 493 kts | 142° |
| 2026-05-07 18:38 | 29.41685 | 31.96124 | 37066 ft | 493 kts | 142° |
| 2026-05-07 18:39 | 29.36165 | 32.00768 | 37065 ft | 492 kts | 142° |
| 2026-05-07 18:39 | 29.30648 | 32.05405 | 37062 ft | 491 kts | 143° |
| 2026-05-07 18:40 | 29.25119 | 32.10045 | 37055 ft | 491 kts | 143° |
| 2026-05-07 18:40 | 29.19612 | 32.14659 | 37060 ft | 490 kts | 143° |
| 2026-05-07 18:41 | 29.14100 | 32.19271 | 37047 ft | 490 kts | 143° |
| 2026-05-07 18:41 | 29.08625 | 32.23847 | 37051 ft | 490 kts | 143° |
| 2026-05-07 18:42 | 29.03133 | 32.28430 | 37047 ft | 489 kts | 143° |
| 2026-05-07 18:42 | 28.97636 | 32.33012 | 37047 ft | 489 kts | 143° |
| 2026-05-07 18:43 | 28.92140 | 32.37586 | 37050 ft | 489 kts | 143° |
| 2026-05-07 18:43 | 28.86622 | 32.42173 | 36995 ft | 490 kts | 143° |
| 2026-05-07 18:43 | 28.83859 | 32.44468 | 36624 ft | 492 kts | 143° |
| 2026-05-07 18:44 | 28.81105 | 32.46752 | 36265 ft | 486 kts | 143° |
| 2026-05-07 18:44 | 28.78381 | 32.49011 | 35862 ft | 482 kts | 143° |
| 2026-05-07 18:44 | 28.75678 | 32.51251 | 35464 ft | 478 kts | 143° |
| 2026-05-07 18:44 | 28.73033 | 32.53441 | 35069 ft | 475 kts | 143° |
| 2026-05-07 18:45 | 28.70366 | 32.55648 | 34667 ft | 471 kts | 142° |
| 2026-05-07 18:45 | 28.67716 | 32.57840 | 34268 ft | 468 kts | 142° |
| 2026-05-07 18:45 | 28.65084 | 32.60015 | 33840 ft | 466 kts | 142° |
| 2026-05-07 18:45 | 28.62471 | 32.62174 | 33382 ft | 463 kts | 142° |
| 2026-05-07 18:46 | 28.59870 | 32.64322 | 32960 ft | 460 kts | 142° |
| 2026-05-07 18:46 | 28.57285 | 32.66455 | 32541 ft | 457 kts | 142° |
| 2026-05-07 18:46 | 28.54720 | 32.68570 | 32145 ft | 453 kts | 143° |
| 2026-05-07 18:46 | 28.52172 | 32.70669 | 31752 ft | 450 kts | 143° |
| 2026-05-07 18:47 | 28.49645 | 32.72751 | 31351 ft | 446 kts | 143° |
| 2026-05-07 18:47 | 28.47172 | 32.74786 | 30965 ft | 441 kts | 143° |
| 2026-05-07 18:47 | 28.44702 | 32.76818 | 30581 ft | 435 kts | 143° |
| 2026-05-07 18:47 | 28.42262 | 32.78823 | 30201 ft | 430 kts | 143° |
| 2026-05-07 18:48 | 28.39852 | 32.80803 | 29785 ft | 425 kts | 143° |
| 2026-05-07 18:48 | 28.37463 | 32.82765 | 29364 ft | 419 kts | 143° |
| 2026-05-07 18:48 | 28.35114 | 32.84692 | 28969 ft | 414 kts | 143° |
| 2026-05-07 18:48 | 28.32787 | 32.86601 | 28593 ft | 411 kts | 143° |
| 2026-05-07 18:49 | 28.30478 | 32.88495 | 28208 ft | 408 kts | 143° |
| 2026-05-07 18:49 | 28.28181 | 32.90378 | 27829 ft | 405 kts | 143° |
| 2026-05-07 18:49 | 28.25906 | 32.92241 | 27453 ft | 403 kts | 143° |
| 2026-05-07 18:49 | 28.23636 | 32.94098 | 27075 ft | 400 kts | 143° |
| 2026-05-07 18:50 | 28.21391 | 32.95935 | 26708 ft | 398 kts | 143° |
| 2026-05-07 18:50 | 28.19180 | 32.97743 | 26339 ft | 395 kts | 143° |
| 2026-05-07 18:50 | 28.16956 | 32.99561 | 25967 ft | 393 kts | 143° |
| 2026-05-07 18:50 | 28.14742 | 33.01370 | 25603 ft | 391 kts | 143° |
| 2026-05-07 18:51 | 28.12541 | 33.03166 | 25235 ft | 390 kts | 143° |
| 2026-05-07 18:51 | 28.10337 | 33.04965 | 24867 ft | 388 kts | 143° |
| 2026-05-07 18:51 | 28.08149 | 33.06751 | 24497 ft | 387 kts | 143° |
| 2026-05-07 18:51 | 28.05967 | 33.08529 | 24122 ft | 386 kts | 143° |
| 2026-05-07 18:52 | 28.03782 | 33.10309 | 23750 ft | 385 kts | 143° |
| 2026-05-07 18:52 | 28.01613 | 33.12076 | 23345 ft | 384 kts | 143° |
| 2026-05-07 18:52 | 27.99442 | 33.13841 | 22900 ft | 383 kts | 143° |
| 2026-05-07 18:52 | 27.97313 | 33.15571 | 22529 ft | 380 kts | 144° |
| 2026-05-07 18:53 | 27.95169 | 33.17313 | 22153 ft | 378 kts | 144° |
| 2026-05-07 18:53 | 27.93047 | 33.19035 | 21784 ft | 373 kts | 144° |
| 2026-05-07 18:53 | 27.90945 | 33.20742 | 21436 ft | 370 kts | 144° |
| 2026-05-07 18:53 | 27.88861 | 33.22433 | 21088 ft | 368 kts | 144° |
| 2026-05-07 18:54 | 27.86816 | 33.24092 | 20742 ft | 365 kts | 144° |
| 2026-05-07 18:54 | 27.84729 | 33.25784 | 20391 ft | 363 kts | 144° |
| 2026-05-07 18:54 | 27.82678 | 33.27447 | 20038 ft | 359 kts | 144° |
| 2026-05-07 18:54 | 27.80685 | 33.29061 | 19698 ft | 354 kts | 144° |
| 2026-05-07 18:55 | 27.78700 | 33.30668 | 19365 ft | 349 kts | 144° |
| 2026-05-07 18:55 | 27.76737 | 33.32257 | 19030 ft | 344 kts | 144° |
| 2026-05-07 18:55 | 27.74800 | 33.33824 | 18698 ft | 339 kts | 145° |
| 2026-05-07 18:55 | 27.72894 | 33.35366 | 18374 ft | 335 kts | 145° |
| 2026-05-07 18:56 | 27.71007 | 33.36891 | 18032 ft | 333 kts | 145° |
| 2026-05-07 18:56 | 27.69127 | 33.38409 | 17682 ft | 331 kts | 145° |
| 2026-05-07 18:56 | 27.67251 | 33.39924 | 17341 ft | 330 kts | 145° |
| 2026-05-07 18:56 | 27.65415 | 33.41406 | 17014 ft | 329 kts | 145° |
| 2026-05-07 18:57 | 27.63554 | 33.42908 | 16693 ft | 328 kts | 145° |
| 2026-05-07 18:57 | 27.61704 | 33.44400 | 16374 ft | 326 kts | 145° |
| 2026-05-07 18:57 | 27.59856 | 33.45890 | 16050 ft | 325 kts | 145° |
| 2026-05-07 18:57 | 27.58022 | 33.47369 | 15730 ft | 324 kts | 145° |
| 2026-05-07 18:58 | 27.56192 | 33.48844 | 15413 ft | 323 kts | 145° |
| 2026-05-07 18:58 | 27.54362 | 33.50317 | 15098 ft | 322 kts | 145° |
| 2026-05-07 18:58 | 27.52542 | 33.51781 | 14785 ft | 321 kts | 146° |
| 2026-05-07 18:58 | 27.50668 | 33.53085 | 14452 ft | 320 kts | 155° |
| 2026-05-07 18:59 | 27.48636 | 33.54105 | 14126 ft | 319 kts | 159° |
| 2026-05-07 18:59 | 27.46573 | 33.55045 | 13774 ft | 320 kts | 160° |
| 2026-05-07 18:59 | 27.44513 | 33.55985 | 13392 ft | 321 kts | 159° |
| 2026-05-07 18:59 | 27.42441 | 33.56957 | 13020 ft | 320 kts | 159° |
| 2026-05-07 19:00 | 27.40394 | 33.57940 | 12673 ft | 319 kts | 158° |
| 2026-05-07 19:00 | 27.38356 | 33.58927 | 12306 ft | 319 kts | 158° |
| 2026-05-07 19:00 | 27.36317 | 33.59916 | 11942 ft | 319 kts | 158° |
| 2026-05-07 19:00 | 27.34253 | 33.60790 | 11705 ft | 313 kts | 165° |
| 2026-05-07 19:01 | 27.32174 | 33.61425 | 11461 ft | 309 kts | 167° |
| 2026-05-07 19:01 | 27.30115 | 33.61994 | 11173 ft | 307 kts | 168° |
| 2026-05-07 19:01 | 27.28047 | 33.62568 | 10874 ft | 305 kts | 167° |
| 2026-05-07 19:01 | 27.25995 | 33.63153 | 10602 ft | 303 kts | 167° |
| 2026-05-07 19:02 | 27.23957 | 33.63748 | 10319 ft | 302 kts | 167° |
| 2026-05-07 19:02 | 27.21936 | 33.64346 | 10157 ft | 296 kts | 167° |
| 2026-05-07 19:02 | 27.19967 | 33.64931 | 10013 ft | 290 kts | 167° |
| 2026-05-07 19:02 | 27.18019 | 33.65509 | 9731 ft | 289 kts | 167° |
| 2026-05-07 19:03 | 27.16082 | 33.66085 | 9428 ft | 288 kts | 166° |
| 2026-05-07 19:03 | 27.14134 | 33.66663 | 9084 ft | 290 kts | 166° |
| 2026-05-07 19:03 | 27.12198 | 33.67232 | 8750 ft | 292 kts | 166° |
| 2026-05-07 19:03 | 27.10225 | 33.67802 | 8403 ft | 294 kts | 166° |
| 2026-05-07 19:04 | 27.08241 | 33.68363 | 8062 ft | 294 kts | 166° |
| 2026-05-07 19:04 | 27.06250 | 33.68918 | 7724 ft | 293 kts | 166° |
| 2026-05-07 19:04 | 27.04281 | 33.69457 | 7383 ft | 288 kts | 166° |
| 2026-05-07 19:04 | 27.02356 | 33.69974 | 7099 ft | 279 kts | 166° |
| 2026-05-07 19:05 | 27.00513 | 33.70462 | 6805 ft | 266 kts | 166° |
| 2026-05-07 19:05 | 26.98748 | 33.70923 | 6512 ft | 255 kts | 165° |
| 2026-05-07 19:05 | 26.97187 | 33.71734 | 6147 ft | 244 kts | 137° |
| 2026-05-07 19:05 | 26.96299 | 33.73225 | 6000 ft | 220 kts | 103° |
| 2026-05-07 19:06 | 26.96255 | 33.74850 | 5757 ft | 204 kts | 76° |
| 2026-05-07 19:06 | 26.96877 | 33.77952 | 4824 ft | 208 kts | 73° |
| 2026-05-07 19:06 | 26.97202 | 33.79517 | 4431 ft | 204 kts | 73° |
| 2026-05-07 19:07 | 26.97511 | 33.81044 | 4069 ft | 199 kts | 73° |
| 2026-05-07 19:07 | 26.98023 | 33.82428 | 3698 ft | 187 kts | 44° |
| 2026-05-07 19:07 | 26.99085 | 33.83110 | 3403 ft | 173 kts | 11° |
| 2026-05-07 19:07 | 27.00252 | 33.83219 | 3121 ft | 167 kts | 353° |
| 2026-05-07 19:08 | 27.01400 | 33.83097 | 2836 ft | 165 kts | 351° |
| 2026-05-07 19:08 | 27.02531 | 33.82969 | 2575 ft | 161 kts | 350° |
| 2026-05-07 19:08 | 27.03620 | 33.82850 | 2349 ft | 153 kts | 351° |
| 2026-05-07 19:08 | 27.04643 | 33.82744 | 2327 ft | 147 kts | 351° |
| 2026-05-07 19:09 | 27.05668 | 33.82638 | 2175 ft | 152 kts | 350° |
| 2026-05-07 19:09 | 27.06700 | 33.82425 | 2015 ft | 151 kts | 342° |
| 2026-05-07 19:09 | 27.07718 | 33.82119 | 1820 ft | 151 kts | 341° |
| 2026-05-07 19:09 | 27.08707 | 33.81822 | 1631 ft | 144 kts | 341° |
| 2026-05-07 19:10 | 27.09663 | 33.81535 | 1428 ft | 140 kts | 341° |
| 2026-05-07 19:10 | 27.10616 | 33.81249 | 1239 ft | 144 kts | 341° |
| 2026-05-07 19:10 | 27.11606 | 33.80961 | 1000 ft | 151 kts | 343° |
| 2026-05-07 19:10 | 27.12616 | 33.80664 | 797 ft | 148 kts | 343° |
| 2026-05-07 19:11 | 27.13614 | 33.80366 | 672 ft | 150 kts | 343° |
| 2026-05-07 19:11 | 27.14597 | 33.80072 | 434 ft | 143 kts | 343° |
| 2026-05-07 19:11 | 27.15540 | 33.79794 | 255 ft | 139 kts | 344° |
| 2026-05-07 19:11 | 27.16494 | 33.79511 | 111 ft | 140 kts | 345° |
| 2026-05-07 19:12 | 27.17300 | 33.79272 | 103 ft | 98 kts | 345° |
| 2026-05-07 19:12 | 27.17813 | 33.79120 | 98 ft | 54 kts | 345° |
| 2026-05-07 19:12 | 27.18133 | 33.79025 | 99 ft | 44 kts | 345° |
| 2026-05-07 19:12 | 27.18386 | 33.79011 | 100 ft | 30 kts | 11° |
| 2026-05-07 19:13 | 27.18488 | 33.79071 | 96 ft | 20 kts | 72° |
| 2026-05-07 19:13 | 27.18398 | 33.79144 | 98 ft | 17 kts | 166° |
| 2026-05-07 19:13 | 27.18284 | 33.79179 | 100 ft | 17 kts | 166° |
| 2026-05-07 19:13 | 27.18174 | 33.79211 | 99 ft | 16 kts | 165° |
| 2026-05-07 19:14 | 27.18068 | 33.79243 | 99 ft | 16 kts | 165° |
| 2026-05-07 19:14 | 27.17949 | 33.79278 | 99 ft | 19 kts | 165° |
| 2026-05-07 19:14 | 27.17815 | 33.79317 | 95 ft | 19 kts | 165° |
| 2026-05-07 19:14 | 27.17688 | 33.79355 | 99 ft | 19 kts | 165° |
| 2026-05-07 19:15 | 27.17563 | 33.79392 | 98 ft | 20 kts | 165° |
| 2026-05-07 19:15 | 27.17418 | 33.79435 | 99 ft | 22 kts | 165° |
| 2026-05-07 19:15 | 27.17284 | 33.79475 | 102 ft | 18 kts | 165° |
| 2026-05-07 19:15 | 27.17247 | 33.79583 | 97 ft | 18 kts | 75° |
| 2026-05-07 19:16 | 27.17286 | 33.79746 | 68 ft | 26 kts | 75° |
| 2026-05-07 19:16 | 27.17337 | 33.79958 | 53 ft | 28 kts | 75° |
| 2026-05-07 19:16 | 27.17384 | 33.80154 | 53 ft | 25 kts | 75° |
| 2026-05-07 19:16 | 27.17428 | 33.80332 | 50 ft | 23 kts | 76° |
| 2026-05-07 19:17 | 27.17467 | 33.80501 | 54 ft | 22 kts | 75° |
| 2026-05-07 19:17 | 27.17502 | 33.80603 | 54 ft | 12 kts | 44° |
| 2026-05-07 19:17 | 27.17582 | 33.80604 | 53 ft | 12 kts | 346° |
| 2026-05-07 19:17 | 27.17663 | 33.80580 | 51 ft | 12 kts | 345° |
| 2026-05-07 19:18 | 27.17740 | 33.80560 | 53 ft | 11 kts | 6° |
| 2026-05-07 19:18 | 27.17765 | 33.80625 | 52 ft | 9 kts | 74° |
| 2026-05-07 19:18 | 27.17772 | 33.80651 | 56 ft | 1 kts | 74° |
| 2026-05-07 19:18 | 27.17774 | 33.80659 | 55 ft | 1 kts | 74° |
| 2026-05-07 19:19 | 27.17775 | 33.80664 | 56 ft | 0 kts | 75° |